Bankersmith, Texas
Current Conditions -  °F | °C
As of 2:55 AM on Friday 31 Oct 2014 (Local Time) from KT82 Reporting Station
Thunderstorm Thunderstorm  
Wind Chill: 18°   Ceiling: 500
Heat Index: 18°   Visibility: 4mi
Dew Point: 17°   Wind: 0mph
Humidity: 94%   Direction: NA
Pressure: 30.18"   Gusts: NA
Location:  30.3069°N, 98.8978°W
Report Text: KT82 310755Z AUTO 00000KT 4SM -TSRA BKN005 OVC012 18/17 A3018 RMK AO2 LTG DSNT SE THRU W P0049 T01760167
Loading
Personal Weather Stations






























Interactive Weather Map
Tropical Storm Tracking
New forecast layout! Learn more

10-Day Weather Forecast

Advertisements
Track Severe Weather on mobile